Time;durP1;ratioP1;P1;durP2;ratioP2;P2;SDS_P1;SDS_P2;PMS_P1;PMS_P2;Temp;Humidity;BMP_temperature;BMP_pressure;BME280_temperature;BME280_humidity;BME280_pressure;Samples;Min_cycle;Max_cycle;Signal;HPM_P1;HPM_P2
2022/07/08 00:00:08;;;;;;;119.53;17.63;;;;;;;;;;4937953;29;20126;-60
2022/07/08 00:02:35;;;;;;;128.07;17.23;;;;;;;;;;4935994;29;21350;-62
2022/07/08 00:05:02;;;;;;;123.38;18.10;;;;;;;;;;4933667;29;20482;-61
2022/07/08 00:07:29;;;;;;;106.32;16.10;;;;;;;;;;4934281;29;20024;-61
2022/07/08 00:09:56;;;;;;;115.30;15.75;;;;;;;;;;4939504;29;20114;-61
2022/07/08 00:12:23;;;;;;;119.00;16.77;;;;;;;;;;4943930;29;21108;-61
2022/07/08 00:14:50;;;;;;;97.43;16.45;;;;;;;;;;4942772;29;20091;-62
2022/07/08 00:17:17;;;;;;;98.00;14.73;;;;;;;;;;4942707;29;20035;-61
2022/07/08 00:19:44;;;;;;;100.50;14.95;;;;;;;;;;4942737;29;20035;-61
2022/07/08 00:22:11;;;;;;;106.03;15.27;;;;;;;;;;4931883;29;20030;-62
2022/07/08 00:24:38;;;;;;;103.72;15.77;;;;;;;;;;4934312;29;20028;-62
2022/07/08 00:27:05;;;;;;;100.18;16.40;;;;;;;;;;4934553;29;20040;-61
2022/07/08 00:29:32;;;;;;;90.40;15.82;;;;;;;;;;4935188;29;20510;-62
2022/07/08 00:31:59;;;;;;;97.00;13.73;;;;;;;;;;4936885;29;20039;-61
2022/07/08 00:34:26;;;;;;;97.82;14.38;;;;;;;;;;4937809;29;20079;-62
2022/07/08 00:36:53;;;;;;;90.57;14.40;;;;;;;;;;4925525;29;20059;-62
2022/07/08 00:39:20;;;;;;;85.55;14.75;;;;;;;;;;4933965;29;20390;-61
2022/07/08 00:41:48;;;;;;;86.90;14.15;;;;;;;;;;4941578;29;20035;-62
2022/07/08 00:44:14;;;;;;;98.07;15.00;;;;;;;;;;4920942;29;20031;-61
2022/07/08 00:46:41;;;;;;;83.13;14.50;;;;;;;;;;4933176;29;20027;-60
2022/07/08 00:49:09;;;;;;;83.60;15.55;;;;;;;;;;4934144;29;20078;-62
2022/07/08 00:51:36;;;;;;;97.47;15.20;;;;;;;;;;4938531;29;20047;-61
2022/07/08 00:54:03;;;;;;;85.38;13.88;;;;;;;;;;4935093;29;20027;-62
2022/07/08 00:56:30;;;;;;;81.60;14.95;;;;;;;;;;4933555;29;20100;-60
2022/07/08 00:58:57;;;;;;;83.90;14.80;;;;;;;;;;4936236;29;20035;-60
2022/07/08 01:01:24;;;;;;;74.93;14.07;;;;;;;;;;4917205;29;20054;-61
2022/07/08 01:03:51;;;;;;;78.30;13.55;;;;;;;;;;4937138;29;20031;-63
2022/07/08 01:06:18;;;;;;;88.88;14.45;;;;;;;;;;4923194;29;20514;-61
2022/07/08 01:08:46;;;;;;;71.90;13.80;;;;;;;;;;4938306;29;20042;-62
2022/07/08 01:11:13;;;;;;;73.13;13.07;;;;;;;;;;4945843;29;20039;-61
2022/07/08 01:13:40;;;;;;;73.18;13.27;;;;;;;;;;4933397;29;20386;-62
2022/07/08 01:16:08;;;;;;;72.63;13.32;;;;;;;;;;4948791;29;20047;-61
2022/07/08 01:18:35;;;;;;;87.07;12.40;;;;;;;;;;4936162;29;20039;-63
2022/07/08 01:21:02;;;;;;;65.10;13.27;;;;;;;;;;4944249;29;20036;-63
2022/07/08 01:23:29;;;;;;;75.53;13.85;;;;;;;;;;4940238;29;20091;-62
2022/07/08 01:25:56;;;;;;;79.65;12.65;;;;;;;;;;4942113;29;20039;-62
2022/07/08 01:28:23;;;;;;;75.93;12.18;;;;;;;;;;4934584;29;20084;-61
2022/07/08 01:30:51;;;;;;;66.10;11.88;;;;;;;;;;4912755;29;20510;-62
2022/07/08 01:33:18;;;;;;;67.88;11.88;;;;;;;;;;4915765;29;20063;-61
2022/07/08 01:35:45;;;;;;;60.08;11.48;;;;;;;;;;4921182;29;20067;-63
2022/07/08 01:38:12;;;;;;;70.57;12.48;;;;;;;;;;4917204;29;20060;-61
2022/07/08 01:40:39;;;;;;;61.22;11.20;;;;;;;;;;4923710;29;20162;-60
2022/07/08 01:43:06;;;;;;;57.83;11.48;;;;;;;;;;4921138;29;20556;-60
2022/07/08 01:45:33;;;;;;;60.72;11.55;;;;;;;;;;4921590;29;20495;-60
2022/07/08 01:48:00;;;;;;;66.35;11.82;;;;;;;;;;4918629;29;20063;-60
2022/07/08 01:50:27;;;;;;;58.72;10.63;;;;;;;;;;4917624;29;20028;-61
2022/07/08 01:52:54;;;;;;;53.13;10.85;;;;;;;;;;4915439;29;20032;-61
2022/07/08 01:55:22;;;;;;;54.58;10.38;;;;;;;;;;4914640;29;20039;-62
2022/07/08 01:57:49;;;;;;;57.72;10.02;;;;;;;;;;4914882;29;20040;-62
2022/07/08 02:00:16;;;;;;;68.22;13.75;;;;;;;;;;4912914;29;20078;-60
2022/07/08 02:02:43;;;;;;;71.45;15.35;;;;;;;;;;4916219;29;20028;-62
2022/07/08 02:05:10;;;;;;;66.93;16.30;;;;;;;;;;4915965;29;20063;-62
2022/07/08 02:07:38;;;;;;;91.68;20.80;;;;;;;;;;4921281;29;20035;-61
2022/07/08 02:10:05;;;;;;;98.53;24.80;;;;;;;;;;4927326;29;20039;-60
2022/07/08 02:12:32;;;;;;;122.78;33.05;;;;;;;;;;4926610;29;20043;-60
2022/07/08 02:15:03;;;;;;;131.95;35.97;;;;;;;;;;4929096;29;20024;-62
2022/07/08 02:17:37;;;;;;;147.40;41.40;;;;;;;;;;4925906;29;20044;-62
2022/07/08 02:20:12;;;;;;;156.10;45.40;;;;;;;;;;4924789;29;20040;-60
2022/07/08 02:22:39;;;;;;;155.32;44.97;;;;;;;;;;4915463;29;20071;-60
2022/07/08 02:25:06;;;;;;;150.82;44.05;;;;;;;;;;4916021;29;20063;-62
2022/07/08 02:27:33;;;;;;;146.25;44.72;;;;;;;;;;4914445;29;20040;-62
2022/07/08 02:30:00;;;;;;;158.13;47.97;;;;;;;;;;4915107;29;20028;-59
2022/07/08 02:32:27;;;;;;;146.10;43.90;;;;;;;;;;4913644;29;20032;-62
2022/07/08 02:34:54;;;;;;;140.15;42.47;;;;;;;;;;4915972;29;20123;-62
2022/07/08 02:37:21;;;;;;;144.77;42.88;;;;;;;;;;4914816;29;20024;-62
2022/07/08 02:39:48;;;;;;;135.95;42.55;;;;;;;;;;4915862;29;20670;-63
2022/07/08 02:42:15;;;;;;;128.10;39.83;;;;;;;;;;4921559;29;20023;-60
2022/07/08 02:44:42;;;;;;;131.40;39.13;;;;;;;;;;4926559;29;20038;-62
2022/07/08 02:47:09;;;;;;;128.02;37.83;;;;;;;;;;4926892;29;20027;-62
2022/07/08 02:49:36;;;;;;;114.55;36.72;;;;;;;;;;4925174;29;20027;-62
2022/07/08 02:52:03;;;;;;;117.45;36.78;;;;;;;;;;4913847;29;20399;-62
2022/07/08 02:54:30;;;;;;;114.55;35.08;;;;;;;;;;4913817;29;20380;-60
2022/07/08 02:56:57;;;;;;;113.95;33.78;;;;;;;;;;4925373;29;20036;-62
2022/07/08 02:59:24;;;;;;;110.88;31.92;;;;;;;;;;4941588;29;20063;-61
2022/07/08 03:01:51;;;;;;;100.20;31.45;;;;;;;;;;4935643;29;20753;-57
2022/07/08 03:04:18;;;;;;;99.70;30.23;;;;;;;;;;4942619;29;20031;-60
2022/07/08 03:06:45;;;;;;;84.28;26.70;;;;;;;;;;4938774;29;20027;-55
2022/07/08 03:09:12;;;;;;;83.10;24.42;;;;;;;;;;4934730;29;20110;-53
2022/07/08 03:11:39;;;;;;;71.82;24.60;;;;;;;;;;4942421;29;20063;-57
2022/07/08 03:14:06;;;;;;;76.53;23.70;;;;;;;;;;4944879;29;20027;-56
2022/07/08 03:16:35;;;;;;;82.72;25.52;;;;;;;;;;4965044;23;20054;-56
2022/07/08 03:19:02;;;;;;;78.22;23.83;;;;;;;;;;4964730;28;20035;-54
2022/07/08 03:21:29;;;;;;;69.93;22.20;;;;;;;;;;4970871;28;20034;-56
2022/07/08 03:23:56;;;;;;;73.82;23.05;;;;;;;;;;4967168;28;20027;-57
2022/07/08 03:26:23;;;;;;;64.50;22.02;;;;;;;;;;4955870;29;20027;-57
2022/07/08 03:28:50;;;;;;;68.53;21.60;;;;;;;;;;4957026;29;20089;-55
2022/07/08 03:31:17;;;;;;;74.18;22.52;;;;;;;;;;4956549;29;20083;-57
2022/07/08 03:33:44;;;;;;;60.05;20.55;;;;;;;;;;4956729;29;20034;-57
2022/07/08 03:36:11;;;;;;;63.47;21.15;;;;;;;;;;4956238;29;20027;-55
2022/07/08 03:38:38;;;;;;;64.75;21.10;;;;;;;;;;4970782;28;20023;-57
2022/07/08 03:41:20;;;;;;;58.88;18.85;;;;;;;;;;4976041;28;20035;-57
2022/07/08 03:43:50;;;;;;;62.88;20.58;;;;;;;;;;4975935;28;20027;-56
2022/07/08 03:46:18;;;;;;;59.47;20.23;;;;;;;;;;4975930;28;20022;-54
2022/07/08 03:48:45;;;;;;;60.42;19.42;;;;;;;;;;4975183;28;20074;-55
2022/07/08 03:51:13;;;;;;;55.20;17.98;;;;;;;;;;4976118;28;20050;-56
2022/07/08 03:53:40;;;;;;;55.72;18.52;;;;;;;;;;4975272;28;20035;-58
2022/07/08 03:56:07;;;;;;;50.80;18.38;;;;;;;;;;4975882;28;20034;-55
2022/07/08 03:58:38;;;;;;;55.22;17.67;;;;;;;;;;4975057;28;20122;-58
2022/07/08 04:01:05;;;;;;;55.65;17.10;;;;;;;;;;4974808;28;20080;-58
2022/07/08 04:03:32;;;;;;;51.22;15.48;;;;;;;;;;4975865;28;20720;-58
2022/07/08 04:05:59;;;;;;;49.33;15.70;;;;;;;;;;4975732;28;20077;-56
2022/07/08 04:08:26;;;;;;;44.60;15.57;;;;;;;;;;4975003;28;20026;-57
2022/07/08 04:10:54;;;;;;;42.92;14.68;;;;;;;;;;4975006;28;20037;-57
2022/07/08 04:13:21;;;;;;;41.78;14.95;;;;;;;;;;4975959;28;20031;-57
2022/07/08 04:15:48;;;;;;;43.95;14.27;;;;;;;;;;4975105;28;20070;-56
2022/07/08 04:18:14;;;;;;;47.50;14.50;;;;;;;;;;4974733;28;20362;-55
2022/07/08 04:20:42;;;;;;;41.45;13.20;;;;;;;;;;4974578;28;20033;-57
2022/07/08 04:23:09;;;;;;;32.80;12.23;;;;;;;;;;4974729;28;20085;-54
2022/07/08 04:25:35;;;;;;;36.67;13.00;;;;;;;;;;4975246;28;20019;-58
2022/07/08 04:28:03;;;;;;;39.88;12.23;;;;;;;;;;4974638;28;20026;-57
2022/07/08 04:30:30;;;;;;;34.63;12.32;;;;;;;;;;4974570;28;20026;-56
2022/07/08 04:32:57;;;;;;;31.55;11.48;;;;;;;;;;4974877;28;20085;-56
2022/07/08 04:35:23;;;;;;;30.13;11.50;;;;;;;;;;4975118;28;20058;-56
2022/07/08 04:37:50;;;;;;;31.10;11.25;;;;;;;;;;4974484;28;20548;-58
2022/07/08 04:40:17;;;;;;;29.95;10.63;;;;;;;;;;4974763;28;20038;-58
2022/07/08 04:42:44;;;;;;;33.75;10.85;;;;;;;;;;4974379;28;20027;-57
2022/07/08 04:45:11;;;;;;;28.23;9.98;;;;;;;;;;4974910;28;20095;-58
2022/07/08 04:47:39;;;;;;;30.83;9.73;;;;;;;;;;4974233;28;20019;-58
2022/07/08 04:50:06;;;;;;;29.98;9.20;;;;;;;;;;4974500;28;20058;-58
2022/07/08 04:52:33;;;;;;;28.33;8.27;;;;;;;;;;4974766;28;20022;-57
2022/07/08 04:55:00;;;;;;;24.10;9.13;;;;;;;;;;4974471;28;20489;-58
2022/07/08 04:57:29;;;;;;;28.20;8.52;;;;;;;;;;4974436;28;20031;-55
2022/07/08 04:59:56;;;;;;;27.77;9.00;;;;;;;;;;4974453;28;20077;-57
2022/07/08 05:02:23;;;;;;;24.20;8.18;;;;;;;;;;4974032;28;20065;-57
2022/07/08 05:04:49;;;;;;;27.70;8.27;;;;;;;;;;4974347;28;20107;-58
2022/07/08 05:07:16;;;;;;;21.33;7.75;;;;;;;;;;4974031;28;20504;-56
2022/07/08 05:09:43;;;;;;;22.23;7.70;;;;;;;;;;4974256;28;20068;-57
2022/07/08 05:12:11;;;;;;;24.08;7.72;;;;;;;;;;4973746;28;20027;-56
2022/07/08 05:14:37;;;;;;;19.83;7.07;;;;;;;;;;4956448;28;20034;-57
2022/07/08 05:17:04;;;;;;;29.13;7.43;;;;;;;;;;4973512;28;20540;-58
2022/07/08 05:19:31;;;;;;;23.10;7.30;;;;;;;;;;4974388;28;20023;-57
2022/07/08 05:21:58;;;;;;;20.92;7.10;;;;;;;;;;4973517;28;20022;-58
2022/07/08 05:24:25;;;;;;;18.55;6.30;;;;;;;;;;4974488;28;20023;-58
2022/07/08 05:26:52;;;;;;;18.98;6.55;;;;;;;;;;4973789;28;20116;-55
2022/07/08 05:29:19;;;;;;;16.77;6.30;;;;;;;;;;4973887;28;20054;-53
2022/07/08 05:31:46;;;;;;;17.27;6.45;;;;;;;;;;4973809;28;20452;-58
2022/07/08 05:34:13;;;;;;;18.08;6.05;;;;;;;;;;4955639;28;20115;-53
2022/07/08 05:36:40;;;;;;;16.08;5.30;;;;;;;;;;4956549;28;20042;-57
2022/07/08 05:39:07;;;;;;;11.75;5.43;;;;;;;;;;4973659;28;20019;-58
2022/07/08 05:41:34;;;;;;;15.13;5.20;;;;;;;;;;4973729;28;20031;-56
2022/07/08 05:44:01;;;;;;;14.50;5.75;;;;;;;;;;4973523;28;20058;-53
2022/07/08 05:46:28;;;;;;;13.73;5.18;;;;;;;;;;4973555;28;20094;-55
2022/07/08 05:48:55;;;;;;;12.60;4.97;;;;;;;;;;4973929;28;20027;-56
2022/07/08 05:51:22;;;;;;;14.57;5.20;;;;;;;;;;4973054;28;20023;-50
2022/07/08 05:53:49;;;;;;;9.68;3.63;;;;;;;;;;4973895;28;20093;-56
2022/07/08 05:56:16;;;;;;;10.93;3.88;;;;;;;;;;4973321;28;20085;-54
2022/07/08 05:58:43;;;;;;;17.08;4.10;;;;;;;;;;4973236;28;20023;-54
2022/07/08 06:01:10;;;;;;;10.88;3.63;;;;;;;;;;4973055;28;20042;-54
2022/07/08 06:03:37;;;;;;;17.30;4.80;;;;;;;;;;4973782;28;20059;-57
2022/07/08 06:06:04;;;;;;;10.05;3.55;;;;;;;;;;4973455;28;20023;-58
2022/07/08 06:08:31;;;;;;;14.05;4.28;;;;;;;;;;4955357;28;20031;-57
2022/07/08 06:11:01;;;;;;;14.55;4.20;;;;;;;;;;4973665;28;20030;-52
2022/07/08 06:13:28;;;;;;;12.27;3.00;;;;;;;;;;4972555;28;20035;-55
2022/07/08 06:15:55;;;;;;;8.20;3.40;;;;;;;;;;4973443;28;20098;-54
2022/07/08 06:18:22;;;;;;;13.13;3.30;;;;;;;;;;4972800;28;20019;-57
2022/07/08 06:20:49;;;;;;;9.88;3.35;;;;;;;;;;4973077;28;20053;-56
2022/07/08 06:23:16;;;;;;;8.55;3.63;;;;;;;;;;4973490;28;20027;-55
2022/07/08 06:25:43;;;;;;;12.18;3.25;;;;;;;;;;4972805;28;20023;-52
2022/07/08 06:28:10;;;;;;;11.73;3.08;;;;;;;;;;4972932;28;20600;-55
2022/07/08 06:30:37;;;;;;;9.23;2.88;;;;;;;;;;4973330;28;20029;-55
2022/07/08 06:33:05;;;;;;;9.77;2.90;;;;;;;;;;4973049;28;20035;-53
2022/07/08 06:35:33;;;;;;;7.43;2.55;;;;;;;;;;4972447;28;20132;-54
2022/07/08 06:38:00;;;;;;;6.97;2.95;;;;;;;;;;4973123;28;20078;-58
2022/07/08 06:40:27;;;;;;;7.75;2.90;;;;;;;;;;4972454;28;20031;-56
2022/07/08 06:42:53;;;;;;;12.23;2.85;;;;;;;;;;4972861;28;20146;-56
2022/07/08 06:45:21;;;;;;;11.38;2.55;;;;;;;;;;4974940;28;20030;-58
2022/07/08 06:47:48;;;;;;;10.30;3.05;;;;;;;;;;4976163;28;20027;-52
2022/07/08 06:50:15;;;;;;;12.93;2.72;;;;;;;;;;4976666;28;20563;-56
2022/07/08 06:52:41;;;;;;;7.72;2.63;;;;;;;;;;4976727;28;20034;-55
2022/07/08 06:55:09;;;;;;;7.70;2.28;;;;;;;;;;4976629;28;20054;-57
2022/07/08 06:57:36;;;;;;;9.40;2.78;;;;;;;;;;4975951;28;20528;-56
2022/07/08 07:00:04;;;;;;;9.98;2.33;;;;;;;;;;4976453;28;20058;-56
2022/07/08 07:02:31;;;;;;;8.60;2.55;;;;;;;;;;4976189;28;20014;-56
2022/07/08 07:04:58;;;;;;;5.65;1.98;;;;;;;;;;4976919;28;20434;-57
2022/07/08 07:07:25;;;;;;;7.30;2.17;;;;;;;;;;4976124;28;20484;-57
2022/07/08 07:09:52;;;;;;;7.47;2.20;;;;;;;;;;4976683;28;20432;-55
2022/07/08 07:12:19;;;;;;;6.22;2.13;;;;;;;;;;4976385;28;20481;-57
2022/07/08 07:14:46;;;;;;;6.53;2.05;;;;;;;;;;4976278;28;20027;-55
2022/07/08 07:17:13;;;;;;;6.43;1.90;;;;;;;;;;4975970;28;20082;-56
2022/07/08 07:19:40;;;;;;;5.25;2.10;;;;;;;;;;4975976;28;20073;-58
2022/07/08 07:22:07;;;;;;;4.95;1.95;;;;;;;;;;4976253;28;20556;-54
2022/07/08 07:24:34;;;;;;;4.88;1.67;;;;;;;;;;4975805;28;20023;-55
2022/07/08 07:27:01;;;;;;;3.50;1.88;;;;;;;;;;4976358;28;20054;-53
2022/07/08 07:29:28;;;;;;;4.90;1.73;;;;;;;;;;4976034;28;20109;-55
2022/07/08 07:31:55;;;;;;;4.65;1.60;;;;;;;;;;4976285;28;20025;-56
2022/07/08 07:34:22;;;;;;;7.07;1.95;;;;;;;;;;4975700;28;20023;-58
2022/07/08 07:36:49;;;;;;;4.50;1.67;;;;;;;;;;4976093;28;20065;-54
2022/07/08 07:39:16;;;;;;;3.40;1.67;;;;;;;;;;4976316;28;20026;-56
2022/07/08 07:41:43;;;;;;;4.05;1.40;;;;;;;;;;4975745;28;20039;-55
2022/07/08 07:44:10;;;;;;;6.40;1.65;;;;;;;;;;4975934;28;20030;-52
2022/07/08 07:46:37;;;;;;;4.13;1.50;;;;;;;;;;4976017;28;20062;-55
2022/07/08 07:49:04;;;;;;;7.82;1.70;;;;;;;;;;4975642;28;20019;-57
2022/07/08 07:51:31;;;;;;;4.13;1.50;;;;;;;;;;4975511;28;20026;-57
2022/07/08 07:53:58;;;;;;;5.80;1.40;;;;;;;;;;4975669;28;20385;-58
2022/07/08 07:56:25;;;;;;;3.70;1.48;;;;;;;;;;4974386;28;20022;-57
2022/07/08 07:58:52;;;;;;;2.83;1.50;;;;;;;;;;4975774;28;20019;-56
2022/07/08 08:01:19;;;;;;;4.53;1.40;;;;;;;;;;4975569;28;20034;-58
2022/07/08 08:03:46;;;;;;;5.43;1.30;;;;;;;;;;4975728;28;20054;-57
2022/07/08 08:06:13;;;;;;;5.40;1.50;;;;;;;;;;4975320;28;20114;-55
2022/07/08 08:08:40;;;;;;;5.07;1.38;;;;;;;;;;4975468;28;20516;-57
2022/07/08 08:11:07;;;;;;;4.00;1.08;;;;;;;;;;4974827;28;20026;-54
2022/07/08 08:13:34;;;;;;;3.15;1.35;;;;;;;;;;4975125;28;20040;-55
2022/07/08 08:16:01;;;;;;;2.90;1.10;;;;;;;;;;4974966;28;20015;-58
2022/07/08 08:18:28;;;;;;;7.20;1.23;;;;;;;;;;4975683;28;20034;-57
2022/07/08 08:20:55;;;;;;;4.25;1.10;;;;;;;;;;4974444;28;20035;-58
2022/07/08 08:23:22;;;;;;;6.75;1.40;;;;;;;;;;4975530;28;20018;-58
2022/07/08 08:25:49;;;;;;;3.42;1.17;;;;;;;;;;4975063;28;20026;-56
2022/07/08 08:28:16;;;;;;;2.88;1.02;;;;;;;;;;4975142;28;20086;-57
2022/07/08 08:30:43;;;;;;;3.05;1.20;;;;;;;;;;4975044;28;20035;-55
2022/07/08 08:33:10;;;;;;;3.00;1.10;;;;;;;;;;4974855;28;20027;-57
2022/07/08 08:35:37;;;;;;;4.07;1.00;;;;;;;;;;4974272;28;20102;-57
2022/07/08 08:38:04;;;;;;;4.18;1.30;;;;;;;;;;4975220;28;20772;-57
2022/07/08 08:40:31;;;;;;;4.40;1.05;;;;;;;;;;4975061;28;20049;-57
2022/07/08 08:42:58;;;;;;;6.57;1.00;;;;;;;;;;4974371;28;20035;-57
2022/07/08 08:45:27;;;;;;;3.42;0.82;;;;;;;;;;4975076;28;20030;-57
2022/07/08 08:47:54;;;;;;;2.85;1.10;;;;;;;;;;4974170;28;20074;-57
2022/07/08 08:53:08;;;;;;;4.30;1.38;;;;;;;;;;4974976;28;20041;-57
2022/07/08 08:55:35;;;;;;;4.55;1.13;;;;;;;;;;4973974;28;20038;-55
2022/07/08 08:58:03;;;;;;;4.03;0.90;;;;;;;;;;4974851;28;20031;-58
2022/07/08 09:00:31;;;;;;;2.65;1.20;;;;;;;;;;4973669;28;20516;-55
2022/07/08 09:02:58;;;;;;;3.50;0.90;;;;;;;;;;4974817;28;20023;-58
2022/07/08 09:05:26;;;;;;;3.10;0.93;;;;;;;;;;4973856;28;20085;-58
2022/07/08 09:07:54;;;;;;;2.45;0.80;;;;;;;;;;4973632;28;20100;-54
2022/07/08 09:10:21;;;;;;;2.78;1.00;;;;;;;;;;4974813;28;20098;-58
2022/07/08 09:13:04;;;;;;;4.07;1.10;;;;;;;;;;4974629;28;20050;-56
2022/07/08 09:15:32;;;;;;;3.17;1.13;;;;;;;;;;4973895;28;20031;-54
2022/07/08 09:18:03;;;;;;;2.22;0.90;;;;;;;;;;4974348;28;20057;-56
2022/07/08 09:20:40;;;;;;;2.15;0.80;;;;;;;;;;4973652;28;20046;-56
2022/07/08 09:23:14;;;;;;;3.28;1.15;;;;;;;;;;4974491;28;20053;-53
2022/07/08 09:25:42;;;;;;;2.63;0.90;;;;;;;;;;4973721;28;20585;-55
2022/07/08 09:28:09;;;;;;;2.58;0.70;;;;;;;;;;4974183;28;20030;-54
2022/07/08 09:30:36;;;;;;;4.85;0.95;;;;;;;;;;4973847;28;20027;-55
2022/07/08 09:33:03;;;;;;;2.78;0.63;;;;;;;;;;4973655;28;20023;-55
2022/07/08 09:35:35;;;;;;;1.48;0.60;;;;;;;;;;4973425;28;20031;-56
2022/07/08 09:38:03;;;;;;;4.67;1.10;;;;;;;;;;4974053;28;20054;-50
2022/07/08 09:40:30;;;;;;;5.72;1.27;;;;;;;;;;4973652;28;20050;-56
2022/07/08 09:42:58;;;;;;;3.20;0.93;;;;;;;;;;4973033;28;20089;-55
2022/07/08 09:45:29;;;;;;;3.45;0.75;;;;;;;;;;4973873;28;20038;-55
2022/07/08 09:48:03;;;;;;;3.30;0.88;;;;;;;;;;4974079;28;20038;-55
2022/07/08 09:50:33;;;;;;;2.35;0.70;;;;;;;;;;4973539;28;20077;-58
2022/07/08 09:53:00;;;;;;;5.97;1.05;;;;;;;;;;4973627;28;20059;-56
2022/07/08 09:55:34;;;;;;;4.00;0.73;;;;;;;;;;4973834;28;20038;-54
2022/07/08 09:58:02;;;;;;;2.72;0.75;;;;;;;;;;4973472;28;20381;-58
2022/07/08 10:00:29;;;;;;;3.17;1.00;;;;;;;;;;4973127;28;20042;-56
2022/07/08 10:02:56;;;;;;;9.23;1.58;;;;;;;;;;4973749;28;20027;-53
2022/07/08 10:05:24;;;;;;;6.47;1.08;;;;;;;;;;4972563;28;20023;-54
2022/07/08 10:07:50;;;;;;;2.13;0.90;;;;;;;;;;4973590;28;20054;-53
2022/07/08 10:10:17;;;;;;;4.10;1.00;;;;;;;;;;4973379;28;20106;-54
2022/07/08 10:12:45;;;;;;;3.70;1.23;;;;;;;;;;4972894;28;20382;-55
2022/07/08 10:15:12;;;;;;;5.93;1.25;;;;;;;;;;4973359;28;20035;-53
2022/07/08 10:17:45;;;;;;;3.30;0.90;;;;;;;;;;4955866;28;20090;-55
2022/07/08 10:20:15;;;;;;;3.60;0.77;;;;;;;;;;4972121;28;20039;-55
2022/07/08 10:22:45;;;;;;;4.38;0.90;;;;;;;;;;4973483;28;20064;-54
2022/07/08 10:25:12;;;;;;;8.75;0.88;;;;;;;;;;4972925;28;20035;-56
2022/07/08 10:27:39;;;;;;;5.20;0.90;;;;;;;;;;4972808;28;20030;-53
2022/07/08 10:30:20;;;;;;;7.63;1.10;;;;;;;;;;4972671;28;20031;-54
2022/07/08 10:32:48;;;;;;;2.45;0.90;;;;;;;;;;4973216;28;20031;-57
2022/07/08 10:35:18;;;;;;;4.18;1.00;;;;;;;;;;4973039;28;20031;-57
2022/07/08 10:37:48;;;;;;;9.13;1.10;;;;;;;;;;4969323;28;20058;-56
2022/07/08 10:40:35;;;;;;;5.72;0.90;;;;;;;;;;4972277;28;20129;-56
2022/07/08 10:43:25;;;;;;;5.28;0.77;;;;;;;;;;4946700;28;20055;-56
2022/07/08 10:46:02;;;;;;;11.55;1.50;;;;;;;;;;4928655;28;20384;-57
2022/07/08 10:48:38;;;;;;;11.90;1.63;;;;;;;;;;4969161;28;20031;-56
2022/07/08 10:51:05;;;;;;;14.43;1.40;;;;;;;;;;4972967;28;20075;-54
2022/07/08 10:53:47;;;;;;;8.05;1.60;;;;;;;;;;4972269;28;20571;-57
2022/07/08 10:56:14;;;;;;;;;;;;;;;;;;4973526;28;20038;-59
2022/07/08 10:58:59;;;;;;;8.95;1.38;;;;;;;;;;4972269;28;19906;-58
2022/07/08 11:01:26;;;;;;;10.68;1.15;;;;;;;;;;4973044;28;20504;-58
2022/07/08 11:03:53;;;;;;;7.13;0.95;;;;;;;;;;4969733;28;20432;-58
2022/07/08 11:06:38;;;;;;;4.90;1.40;;;;;;;;;;4969320;28;20046;-57
2022/07/08 11:09:08;;;;;;;11.75;0.98;;;;;;;;;;4962526;28;20082;-58
2022/07/08 11:11:37;;;;;;;5.22;1.20;;;;;;;;;;4951756;28;20034;-60
2022/07/08 11:14:04;;;;;;;10.48;1.48;;;;;;;;;;4951988;28;20063;-58
2022/07/08 11:16:32;;;;;;;13.23;1.30;;;;;;;;;;4959816;28;20485;-56
2022/07/08 11:19:00;;;;;;;18.30;1.80;;;;;;;;;;4952700;29;20058;-53
2022/07/08 11:21:28;;;;;;;19.23;1.83;;;;;;;;;;4953271;29;20039;-55
2022/07/08 11:23:56;;;;;;;98.38;6.85;;;;;;;;;;4952633;29;20035;-59
2022/07/08 11:26:23;;;;;;;59.40;4.15;;;;;;;;;;4953198;29;20032;-60
2022/07/08 11:28:50;;;;;;;44.75;3.17;;;;;;;;;;4953260;29;20039;-58
2022/07/08 11:31:35;;;;;;;58.05;4.22;;;;;;;;;;4952928;28;20087;-57
2022/07/08 11:34:02;;;;;;;59.38;3.67;;;;;;;;;;4956808;28;20043;-58
2022/07/08 11:36:29;;;;;;;170.25;13.10;;;;;;;;;;4964817;28;20025;-60
2022/07/08 11:38:56;;;;;;;137.57;13.48;;;;;;;;;;4971665;28;20110;-58
2022/07/08 11:41:23;;;;;;;103.40;8.85;;;;;;;;;;4974237;28;20034;-58
2022/07/08 11:43:51;;;;;;;45.83;5.10;;;;;;;;;;4974365;28;20110;-59
2022/07/08 11:46:22;;;;;;;33.47;4.55;;;;;;;;;;4975320;28;20034;-60
2022/07/08 11:48:49;;;;;;;34.25;3.97;;;;;;;;;;4975286;28;20544;-60
2022/07/08 11:51:16;;;;;;;35.33;3.72;;;;;;;;;;4974731;28;20035;-61
2022/07/08 11:53:44;;;;;;;32.20;3.25;;;;;;;;;;4975455;28;20022;-60
2022/07/08 11:56:11;;;;;;;39.83;4.35;;;;;;;;;;4971603;28;20031;-62
2022/07/08 11:58:39;;;;;;;46.50;3.92;;;;;;;;;;4973927;28;20034;-61
2022/07/08 12:01:06;;;;;;;38.47;4.28;;;;;;;;;;4971637;28;20090;-60
2022/07/08 12:03:34;;;;;;;41.97;4.25;;;;;;;;;;4973897;28;20125;-62
2022/07/08 12:06:02;;;;;;;39.47;3.90;;;;;;;;;;4974003;28;20493;-60
2022/07/08 12:08:28;;;;;;;32.38;4.00;;;;;;;;;;4972401;28;20038;-62
2022/07/08 12:11:11;;;;;;;43.65;3.90;;;;;;;;;;4955327;28;20117;-60
2022/07/08 12:13:44;;;;;;;38.22;4.70;;;;;;;;;;4974144;28;20027;-62
2022/07/08 12:16:11;;;;;;;45.50;5.63;;;;;;;;;;4965082;28;20516;-60
2022/07/08 12:18:44;;;;;;;45.58;6.40;;;;;;;;;;4969908;28;20027;-61
2022/07/08 12:21:18;;;;;;;51.15;5.82;;;;;;;;;;4967524;28;20038;-61
2022/07/08 12:23:45;;;;;;;41.80;4.85;;;;;;;;;;4973295;28;20110;-60
2022/07/08 12:26:12;;;;;;;39.70;5.00;;;;;;;;;;4969132;28;20711;-60
2022/07/08 12:28:39;;;;;;;47.70;5.82;;;;;;;;;;4967012;28;20033;-60
2022/07/08 12:31:06;;;;;;;37.53;5.10;;;;;;;;;;4970799;28;20094;-60
2022/07/08 12:33:33;;;;;;;39.88;5.07;;;;;;;;;;4969211;28;20392;-60
2022/07/08 12:36:02;;;;;;;48.15;5.47;;;;;;;;;;4970850;28;20508;-61
2022/07/08 12:38:30;;;;;;;24.65;3.20;;;;;;;;;;4969334;28;20030;-62
2022/07/08 12:40:57;;;;;;;25.00;4.00;;;;;;;;;;4972041;28;20834;-60
2022/07/08 12:43:34;;;;;;;33.67;4.78;;;;;;;;;;4972999;28;20384;-61
2022/07/08 12:46:01;;;;;;;33.50;3.95;;;;;;;;;;4969690;28;20026;-61
2022/07/08 12:48:28;;;;;;;32.08;4.53;;;;;;;;;;4973500;28;20080;-62
2022/07/08 12:50:54;;;;;;;30.52;3.47;;;;;;;;;;4973149;28;20114;-62
2022/07/08 12:53:21;;;;;;;35.78;3.85;;;;;;;;;;4970408;28;20058;-62
2022/07/08 12:55:48;;;;;;;28.85;3.72;;;;;;;;;;4959980;28;20026;-61
2022/07/08 12:58:15;;;;;;;29.05;3.78;;;;;;;;;;4967934;28;20054;-63
2022/07/08 13:00:42;;;;;;;34.42;3.50;;;;;;;;;;4972473;28;20078;-63
2022/07/08 13:03:09;;;;;;;38.65;4.38;;;;;;;;;;4973106;28;20030;-64
2022/07/08 13:05:37;;;;;;;39.15;3.22;;;;;;;;;;4972778;28;20053;-60
2022/07/08 13:08:04;;;;;;;41.10;4.15;;;;;;;;;;4970197;28;20085;-62
2022/07/08 13:10:31;;;;;;;25.77;3.67;;;;;;;;;;4971407;28;20067;-58
2022/07/08 13:12:58;;;;;;;42.28;3.30;;;;;;;;;;4970650;28;20078;-59
2022/07/08 13:15:25;;;;;;;34.53;3.38;;;;;;;;;;4972341;28;20070;-61
2022/07/08 13:17:52;;;;;;;20.50;2.53;;;;;;;;;;4972688;28;20030;-59
2022/07/08 13:20:20;;;;;;;23.23;2.40;;;;;;;;;;4970584;28;20038;-59
2022/07/08 13:22:47;;;;;;;27.73;3.08;;;;;;;;;;4968648;28;20038;-58
2022/07/08 13:25:14;;;;;;;24.83;2.83;;;;;;;;;;4961451;28;20039;-61
2022/07/08 13:27:44;;;;;;;21.38;2.47;;;;;;;;;;4972861;28;20034;-61
2022/07/08 13:30:12;;;;;;;26.10;2.38;;;;;;;;;;4953608;28;20069;-60
2022/07/08 13:32:39;;;;;;;25.77;2.38;;;;;;;;;;4963981;28;20489;-62
2022/07/08 13:35:06;;;;;;;18.35;2.22;;;;;;;;;;4971996;28;20129;-62
2022/07/08 13:37:34;;;;;;;25.70;3.15;;;;;;;;;;4971922;28;20034;-60
2022/07/08 13:40:01;;;;;;;27.25;3.25;;;;;;;;;;4970068;28;20038;-60
2022/07/08 13:42:28;;;;;;;33.70;2.92;;;;;;;;;;4967594;28;20038;-60
2022/07/08 13:44:55;;;;;;;32.13;2.75;;;;;;;;;;4971382;28;20032;-60
2022/07/08 13:47:22;;;;;;;131.50;27.95;;;;;;;;;;4971879;28;20039;-61
2022/07/08 13:49:49;;;;;;;61.13;13.05;;;;;;;;;;4965887;28;20119;-60
2022/07/08 13:52:15;;;;;;;42.20;8.95;;;;;;;;;;4971730;28;20030;-61
2022/07/08 13:54:42;;;;;;;31.00;5.97;;;;;;;;;;4970050;28;20137;-61
2022/07/08 13:57:09;;;;;;;45.15;6.75;;;;;;;;;;4971083;28;20401;-60
2022/07/08 13:59:36;;;;;;;39.83;6.25;;;;;;;;;;4971666;28;20090;-61
2022/07/08 14:02:03;;;;;;;35.13;5.65;;;;;;;;;;4970796;28;20034;-61
2022/07/08 14:04:30;;;;;;;37.15;6.18;;;;;;;;;;4972348;28;20110;-62
2022/07/08 14:06:57;;;;;;;47.80;6.18;;;;;;;;;;4971010;28;20031;-61
2022/07/08 14:09:24;;;;;;;32.70;4.93;;;;;;;;;;4970925;28;20062;-61
2022/07/08 14:11:51;;;;;;;33.75;3.53;;;;;;;;;;4970722;28;20113;-61
2022/07/08 14:14:18;;;;;;;30.20;3.85;;;;;;;;;;4971727;28;20112;-62
2022/07/08 14:16:45;;;;;;;31.83;4.18;;;;;;;;;;4970944;28;20046;-62
2022/07/08 14:19:12;;;;;;;31.65;4.55;;;;;;;;;;4972418;28;20041;-61
2022/07/08 14:21:39;;;;;;;36.60;4.07;;;;;;;;;;4969088;28;20039;-60
2022/07/08 14:24:06;;;;;;;30.00;3.67;;;;;;;;;;4971267;28;20086;-61
2022/07/08 14:26:33;;;;;;;52.30;3.50;;;;;;;;;;4971365;28;20030;-61
2022/07/08 14:29:00;;;;;;;38.05;3.90;;;;;;;;;;4968262;28;20100;-62
2022/07/08 14:31:27;;;;;;;91.20;4.90;;;;;;;;;;4971450;28;20011;-62
2022/07/08 14:33:54;;;;;;;74.40;4.78;;;;;;;;;;4971876;28;20077;-63